sensor_id;sensor_type;location;lat;lon;timestamp;pressure;altitude;pressure_sealevel;temperature;humidity
23118;BME280;11728;50.624;6.014;2022-07-29T00:00:14;98209.78;;;18.78;58.97
23118;BME280;11728;50.624;6.014;2022-07-29T00:05:30;98199.78;;;18.81;58.37
23118;BME280;11728;50.624;6.014;2022-07-29T00:10:37;98193.38;;;18.84;58.27
23118;BME280;11728;50.624;6.014;2022-07-29T00:15:49;98191.66;;;18.83;58.21
23118;BME280;11728;50.624;6.014;2022-07-29T00:21:05;98181.56;;;18.72;58.69
23118;BME280;11728;50.624;6.014;2022-07-29T00:26:05;98186.56;;;18.63;59.08
23118;BME280;11728;50.624;6.014;2022-07-29T00:31:24;98186.94;;;18.57;59.53
23118;BME280;11728;50.624;6.014;2022-07-29T00:36:37;98179.66;;;18.44;59.80
23118;BME280;11728;50.624;6.014;2022-07-29T00:41:40;98165.25;;;18.31;59.72
23118;BME280;11728;50.624;6.014;2022-07-29T00:46:58;98172.94;;;18.20;59.94
23118;BME280;11728;50.624;6.014;2022-07-29T00:52:11;98180.28;;;18.16;60.18
23118;BME280;11728;50.624;6.014;2022-07-29T00:57:14;98185.25;;;18.07;60.47
23118;BME280;11728;50.624;6.014;2022-07-29T01:02:27;98170.53;;;17.83;61.75
23118;BME280;11728;50.624;6.014;2022-07-29T01:07:47;98177.00;;;17.79;62.09
23118;BME280;11728;50.624;6.014;2022-07-29T01:12:51;98173.56;;;17.92;61.55
23118;BME280;11728;50.624;6.014;2022-07-29T01:18:11;98173.44;;;18.11;60.87
23118;BME280;11728;50.624;6.014;2022-07-29T01:29:00;98180.66;;;18.26;60.46
23118;BME280;11728;50.624;6.014;2022-07-29T01:34:05;98175.50;;;18.23;61.23
23118;BME280;11728;50.624;6.014;2022-07-29T01:39:11;98171.22;;;18.19;60.78
23118;BME280;11728;50.624;6.014;2022-07-29T01:44:17;98174.72;;;18.21;60.90
23118;BME280;11728;50.624;6.014;2022-07-29T01:49:27;98171.09;;;18.22;60.35
23118;BME280;11728;50.624;6.014;2022-07-29T01:54:44;98168.53;;;18.19;60.22
23118;BME280;11728;50.624;6.014;2022-07-29T01:59:47;98167.78;;;18.17;60.70
23118;BME280;11728;50.624;6.014;2022-07-29T02:04:50;98171.81;;;18.08;60.84
23118;BME280;11728;50.624;6.014;2022-07-29T02:09:56;98180.13;;;17.87;61.83
23118;BME280;11728;50.624;6.014;2022-07-29T02:15:03;98184.69;;;17.68;62.66
23118;BME280;11728;50.624;6.014;2022-07-29T02:20:13;98188.41;;;17.49;63.94
23118;BME280;11728;50.624;6.014;2022-07-29T02:25:32;98191.25;;;17.46;64.17
23118;BME280;11728;50.624;6.014;2022-07-29T02:30:46;98198.38;;;17.45;64.40
23118;BME280;11728;50.624;6.014;2022-07-29T02:35:58;98198.69;;;17.39;64.59
23118;BME280;11728;50.624;6.014;2022-07-29T02:41:20;98192.22;;;17.26;65.28
23118;BME280;11728;50.624;6.014;2022-07-29T02:46:30;98197.88;;;17.20;65.03
23118;BME280;11728;50.624;6.014;2022-07-29T02:51:44;98205.56;;;17.09;65.80
23118;BME280;11728;50.624;6.014;2022-07-29T02:56:53;98197.22;;;16.98;66.62
23118;BME280;11728;50.624;6.014;2022-07-29T03:01:57;98201.13;;;16.92;67.19
23118;BME280;11728;50.624;6.014;2022-07-29T03:07:11;98200.84;;;16.97;67.38
23118;BME280;11728;50.624;6.014;2022-07-29T03:12:26;98199.53;;;16.88;68.13
23118;BME280;11728;50.624;6.014;2022-07-29T03:17:27;98205.75;;;16.88;68.23
23118;BME280;11728;50.624;6.014;2022-07-29T03:22:44;98202.69;;;16.95;68.00
23118;BME280;11728;50.624;6.014;2022-07-29T03:27:59;98211.34;;;17.00;68.06
23118;BME280;11728;50.624;6.014;2022-07-29T03:32:59;98217.47;;;17.02;68.11
23118;BME280;11728;50.624;6.014;2022-07-29T03:38:13;98215.41;;;16.91;68.30
23118;BME280;11728;50.624;6.014;2022-07-29T03:43:34;98214.69;;;16.87;68.33
23118;BME280;11728;50.624;6.014;2022-07-29T03:48:39;98227.66;;;16.94;68.18
23118;BME280;11728;50.624;6.014;2022-07-29T03:53:48;98229.38;;;16.95;67.80
23118;BME280;11728;50.624;6.014;2022-07-29T03:59:06;98215.72;;;16.85;68.87
23118;BME280;11728;50.624;6.014;2022-07-29T04:04:11;98214.56;;;16.72;69.90
23118;BME280;11728;50.624;6.014;2022-07-29T04:09:24;98223.50;;;16.71;70.49
23118;BME280;11728;50.624;6.014;2022-07-29T04:14:38;98221.78;;;16.70;71.32
23118;BME280;11728;50.624;6.014;2022-07-29T04:19:41;98233.22;;;16.72;72.91
23118;BME280;11728;50.624;6.014;2022-07-29T04:24:57;98236.19;;;16.66;73.59
23118;BME280;11728;50.624;6.014;2022-07-29T04:30:11;98235.19;;;16.50;73.53
23118;BME280;11728;50.624;6.014;2022-07-29T04:35:15;98241.91;;;16.40;74.12
23118;BME280;11728;50.624;6.014;2022-07-29T04:40:30;98241.59;;;16.26;74.47
23118;BME280;11728;50.624;6.014;2022-07-29T04:45:48;98226.31;;;16.11;75.74
23118;BME280;11728;50.624;6.014;2022-07-29T04:50:51;98237.94;;;16.10;76.19
23118;BME280;11728;50.624;6.014;2022-07-29T04:56:02;98226.47;;;16.08;75.80
23118;BME280;11728;50.624;6.014;2022-07-29T05:01:20;98229.44;;;16.02;75.86
23118;BME280;11728;50.624;6.014;2022-07-29T05:06:21;98225.84;;;16.03;75.46
23118;BME280;11728;50.624;6.014;2022-07-29T05:11:36;98231.16;;;16.03;75.22
23118;BME280;11728;50.624;6.014;2022-07-29T05:16:52;98231.81;;;16.08;75.17
23118;BME280;11728;50.624;6.014;2022-07-29T05:21:56;98223.13;;;16.23;74.49
23118;BME280;11728;50.624;6.014;2022-07-29T05:27:12;98221.63;;;16.36;74.28
23118;BME280;11728;50.624;6.014;2022-07-29T05:32:22;98220.34;;;16.44;74.12
23118;BME280;11728;50.624;6.014;2022-07-29T05:37:25;98222.66;;;16.52;74.09
23118;BME280;11728;50.624;6.014;2022-07-29T05:42:43;98222.94;;;16.64;73.71
23118;BME280;11728;50.624;6.014;2022-07-29T05:47:59;98214.56;;;16.72;73.16
23118;BME280;11728;50.624;6.014;2022-07-29T05:53:01;98222.22;;;16.79;72.95
23118;BME280;11728;50.624;6.014;2022-07-29T05:58:14;98221.50;;;16.92;72.66
23118;BME280;11728;50.624;6.014;2022-07-29T06:03:30;98216.09;;;17.12;72.02
23118;BME280;11728;50.624;6.014;2022-07-29T06:08:34;98217.34;;;17.22;71.59
23118;BME280;11728;50.624;6.014;2022-07-29T06:13:47;98222.09;;;17.34;71.51
23118;BME280;11728;50.624;6.014;2022-07-29T06:19:02;98211.19;;;18.05;68.80
23118;BME280;11728;50.624;6.014;2022-07-29T06:24:04;98206.16;;;18.94;65.17
23118;BME280;11728;50.624;6.014;2022-07-29T06:29:20;98213.19;;;19.71;62.00
23118;BME280;11728;50.624;6.014;2022-07-29T06:34:36;98215.00;;;20.41;59.92
23118;BME280;11728;50.624;6.014;2022-07-29T06:39:36;98205.03;;;20.57;57.86
23118;BME280;11728;50.624;6.014;2022-07-29T06:44:52;98210.94;;;21.04;57.25
23118;BME280;11728;50.624;6.014;2022-07-29T06:50:08;98218.72;;;21.21;55.64
23118;BME280;11728;50.624;6.014;2022-07-29T06:55:12;98218.63;;;21.49;55.40
23118;BME280;11728;50.624;6.014;2022-07-29T07:00:24;98219.97;;;21.56;54.68
23118;BME280;11728;50.624;6.014;2022-07-29T07:05:40;98221.53;;;21.84;53.98
23118;BME280;11728;50.624;6.014;2022-07-29T07:10:45;98234.22;;;21.82;54.04
23118;BME280;11728;50.624;6.014;2022-07-29T07:15:58;98230.53;;;22.47;52.42
23118;BME280;11728;50.624;6.014;2022-07-29T07:21:11;98226.28;;;22.68;51.25
23118;BME280;11728;50.624;6.014;2022-07-29T07:26:18;98232.84;;;22.89;49.90
23118;BME280;11728;50.624;6.014;2022-07-29T07:31:29;98231.19;;;22.99;49.89
23118;BME280;11728;50.624;6.014;2022-07-29T07:36:48;98226.22;;;23.18;48.97
23118;BME280;11728;50.624;6.014;2022-07-29T07:41:52;98223.34;;;23.78;47.70
23118;BME280;11728;50.624;6.014;2022-07-29T07:47:07;98229.13;;;24.19;46.88
23118;BME280;11728;50.624;6.014;2022-07-29T07:52:23;98230.69;;;24.99;45.72
23118;BME280;11728;50.624;6.014;2022-07-29T07:57:24;98246.66;;;25.02;45.01
23118;BME280;11728;50.624;6.014;2022-07-29T08:02:43;98242.34;;;26.27;44.12
23118;BME280;11728;50.624;6.014;2022-07-29T08:07:57;98236.41;;;27.52;41.98
23118;BME280;11728;50.624;6.014;2022-07-29T08:12:58;98234.28;;;29.05;40.94
23118;BME280;11728;50.624;6.014;2022-07-29T08:18:11;98238.75;;;29.60;39.71
23118;BME280;11728;50.624;6.014;2022-07-29T08:23:24;98245.06;;;29.77;39.45
23118;BME280;11728;50.624;6.014;2022-07-29T08:28:27;98235.63;;;29.72;39.34
23118;BME280;11728;50.624;6.014;2022-07-29T08:33:43;98240.09;;;30.85;37.30
23118;BME280;11728;50.624;6.014;2022-07-29T08:39:00;98239.28;;;31.51;35.71
23118;BME280;11728;50.624;6.014;2022-07-29T08:44:01;98237.25;;;31.53;35.53
23118;BME280;11728;50.624;6.014;2022-07-29T08:49:17;98239.47;;;32.15;34.60
23118;BME280;11728;50.624;6.014;2022-07-29T08:54:40;98239.84;;;32.60;33.57
23118;BME280;11728;50.624;6.014;2022-07-29T08:59:46;98232.94;;;33.03;32.67
23118;BME280;11728;50.624;6.014;2022-07-29T09:04:59;98237.56;;;33.65;31.54
23118;BME280;11728;50.624;6.014;2022-07-29T09:10:13;98242.63;;;33.76;31.50
23118;BME280;11728;50.624;6.014;2022-07-29T09:15:13;98243.38;;;33.92;31.22
23118;BME280;11728;50.624;6.014;2022-07-29T09:20:29;98241.66;;;32.99;32.02
23118;BME280;11728;50.624;6.014;2022-07-29T09:26:09;98235.38;;;32.51;32.12
23118;BME280;11728;50.624;6.014;2022-07-29T09:31:33;98252.44;;;32.92;31.67
23118;BME280;11728;50.624;6.014;2022-07-29T09:36:51;98251.78;;;32.98;31.29
23118;BME280;11728;50.624;6.014;2022-07-29T09:42:10;98263.56;;;32.99;31.65
23118;BME280;11728;50.624;6.014;2022-07-29T09:47:40;98263.53;;;34.07;30.17
23118;BME280;11728;50.624;6.014;2022-07-29T09:52:51;98262.28;;;34.40;29.72
23118;BME280;11728;50.624;6.014;2022-07-29T09:57:52;98263.06;;;34.48;29.39
23118;BME280;11728;50.624;6.014;2022-07-29T10:03:02;98261.66;;;34.52;29.35
23118;BME280;11728;50.624;6.014;2022-07-29T10:08:06;98267.91;;;34.47;29.20
23118;BME280;11728;50.624;6.014;2022-07-29T10:13:25;98257.09;;;34.67;28.57
23118;BME280;11728;50.624;6.014;2022-07-29T10:18:39;98270.38;;;35.15;28.84
23118;BME280;11728;50.624;6.014;2022-07-29T10:23:42;98259.97;;;35.39;28.32
23118;BME280;11728;50.624;6.014;2022-07-29T10:28:57;98265.75;;;35.30;27.93
23118;BME280;11728;50.624;6.014;2022-07-29T10:45:48;98281.25;;;36.09;27.37
23118;BME280;11728;50.624;6.014;2022-07-29T10:51:03;98267.13;;;36.48;26.46
23118;BME280;11728;50.624;6.014;2022-07-29T10:56:27;98278.84;;;36.56;26.53
23118;BME280;11728;50.624;6.014;2022-07-29T11:01:29;98283.44;;;36.70;25.80
23118;BME280;11728;50.624;6.014;2022-07-29T11:13:06;98279.41;;;37.14;25.78
23118;BME280;11728;50.624;6.014;2022-07-29T11:18:07;98279.44;;;37.48;24.89
23118;BME280;11728;50.624;6.014;2022-07-29T11:23:32;98292.88;;;37.30;24.59
23118;BME280;11728;50.624;6.014;2022-07-29T11:28:42;98283.84;;;36.88;25.50
23118;BME280;11728;50.624;6.014;2022-07-29T11:33:52;98290.78;;;37.05;24.88
23118;BME280;11728;50.624;6.014;2022-07-29T11:39:25;98291.53;;;37.20;24.86
23118;BME280;11728;50.624;6.014;2022-07-29T11:50:27;98290.91;;;37.45;25.25
23118;BME280;11728;50.624;6.014;2022-07-29T11:55:40;98282.91;;;37.90;24.57
23118;BME280;11728;50.624;6.014;2022-07-29T12:00:41;98281.22;;;37.96;24.28
23118;BME280;11728;50.624;6.014;2022-07-29T12:05:44;98289.28;;;37.97;24.87
23118;BME280;11728;50.624;6.014;2022-07-29T12:10:59;98285.88;;;37.95;24.67
23118;BME280;11728;50.624;6.014;2022-07-29T12:16:09;98287.97;;;38.34;24.05
23118;BME280;11728;50.624;6.014;2022-07-29T12:21:18;98285.75;;;37.70;24.76
23118;BME280;11728;50.624;6.014;2022-07-29T12:26:32;98287.56;;;37.90;24.82
23118;BME280;11728;50.624;6.014;2022-07-29T12:31:52;98275.97;;;37.73;25.20
23118;BME280;11728;50.624;6.014;2022-07-29T12:36:57;98282.06;;;37.90;24.51
23118;BME280;11728;50.624;6.014;2022-07-29T12:42:14;98280.63;;;37.67;24.81
23118;BME280;11728;50.624;6.014;2022-07-29T12:47:28;98276.53;;;37.90;24.86
23118;BME280;11728;50.624;6.014;2022-07-29T12:52:33;98274.97;;;37.41;25.20
23118;BME280;11728;50.624;6.014;2022-07-29T12:57:50;98280.31;;;37.28;25.43
23118;BME280;11728;50.624;6.014;2022-07-29T13:03:04;98279.09;;;36.82;26.17
23118;BME280;11728;50.624;6.014;2022-07-29T13:08:14;98292.19;;;35.89;26.75
23118;BME280;11728;50.624;6.014;2022-07-29T13:13:24;98294.00;;;35.82;26.95
23118;BME280;11728;50.624;6.014;2022-07-29T13:18:40;98290.09;;;35.47;27.01
23118;BME280;11728;50.624;6.014;2022-07-29T13:23:44;98307.47;;;34.52;27.72
23118;BME280;11728;50.624;6.014;2022-07-29T13:29:03;98304.91;;;34.28;29.06
23118;BME280;11728;50.624;6.014;2022-07-29T13:34:19;98304.22;;;35.30;27.43
23118;BME280;11728;50.624;6.014;2022-07-29T13:39:25;98300.84;;;35.28;27.74
23118;BME280;11728;50.624;6.014;2022-07-29T13:44:38;98294.34;;;35.21;27.82
23118;BME280;11728;50.624;6.014;2022-07-29T13:49:57;98296.72;;;34.87;28.06
23118;BME280;11728;50.624;6.014;2022-07-29T13:55:01;98313.53;;;34.17;28.58
23118;BME280;11728;50.624;6.014;2022-07-29T14:00:15;98310.41;;;34.28;28.52
23118;BME280;11728;50.624;6.014;2022-07-29T14:05:28;98309.72;;;33.42;29.47
23118;BME280;11728;50.624;6.014;2022-07-29T14:10:35;98310.91;;;33.39;29.87
23118;BME280;11728;50.624;6.014;2022-07-29T14:15:51;98311.66;;;33.17;29.93
23118;BME280;11728;50.624;6.014;2022-07-29T14:21:10;98308.91;;;32.46;31.08
23118;BME280;11728;50.624;6.014;2022-07-29T14:26:13;98315.47;;;32.69;30.90
23118;BME280;11728;50.624;6.014;2022-07-29T14:31:29;98315.06;;;32.56;30.81
23118;BME280;11728;50.624;6.014;2022-07-29T14:36:42;98319.50;;;32.33;30.08
23118;BME280;11728;50.624;6.014;2022-07-29T14:41:49;98318.44;;;32.18;30.41
23118;BME280;11728;50.624;6.014;2022-07-29T14:47:05;98315.44;;;31.54;30.85
23118;BME280;11728;50.624;6.014;2022-07-29T14:52:24;98320.22;;;31.27;31.66
23118;BME280;11728;50.624;6.014;2022-07-29T14:57:31;98315.56;;;30.94;31.85
23118;BME280;11728;50.624;6.014;2022-07-29T15:02:45;98312.13;;;31.76;31.81
23118;BME280;11728;50.624;6.014;2022-07-29T15:08:01;98312.50;;;31.81;31.26
23118;BME280;11728;50.624;6.014;2022-07-29T15:13:01;98329.97;;;30.87;31.84
23118;BME280;11728;50.624;6.014;2022-07-29T15:18:17;98325.03;;;30.30;33.09
23118;BME280;11728;50.624;6.014;2022-07-29T15:23:33;98324.31;;;30.28;33.43
23118;BME280;11728;50.624;6.014;2022-07-29T15:28:39;98324.72;;;30.68;33.30
23118;BME280;11728;50.624;6.014;2022-07-29T15:33:55;98330.34;;;30.49;33.24
23118;BME280;11728;50.624;6.014;2022-07-29T15:39:12;98324.31;;;30.11;34.17
23118;BME280;11728;50.624;6.014;2022-07-29T15:44:15;98333.34;;;29.84;34.83
23118;BME280;11728;50.624;6.014;2022-07-29T15:49:39;98322.16;;;29.87;35.35
23118;BME280;11728;50.624;6.014;2022-07-29T15:54:48;98319.41;;;30.14;35.17
23118;BME280;11728;50.624;6.014;2022-07-29T15:59:52;98322.88;;;30.51;34.46
23118;BME280;11728;50.624;6.014;2022-07-29T16:05:11;98317.94;;;30.54;34.29
23118;BME280;11728;50.624;6.014;2022-07-29T16:10:26;98318.03;;;30.62;34.17
23118;BME280;11728;50.624;6.014;2022-07-29T16:15:29;98325.47;;;30.08;34.32
23118;BME280;11728;50.624;6.014;2022-07-29T16:20:45;98324.53;;;29.73;35.29
23118;BME280;11728;50.624;6.014;2022-07-29T16:26:04;98317.38;;;29.45;35.29
23118;BME280;11728;50.624;6.014;2022-07-29T16:31:06;98319.53;;;29.42;35.27
23118;BME280;11728;50.624;6.014;2022-07-29T16:36:25;98321.13;;;28.89;36.77
23118;BME280;11728;50.624;6.014;2022-07-29T16:41:41;98324.44;;;28.64;37.01
23118;BME280;11728;50.624;6.014;2022-07-29T16:46:44;98322.56;;;28.36;36.65
23118;BME280;11728;50.624;6.014;2022-07-29T16:52:03;98324.13;;;28.10;37.41
23118;BME280;11728;50.624;6.014;2022-07-29T16:57:19;98320.22;;;27.85;38.13
23118;BME280;11728;50.624;6.014;2022-07-29T17:02:22;98320.38;;;27.93;38.33
23118;BME280;11728;50.624;6.014;2022-07-29T17:07:41;98322.25;;;27.83;37.76
23118;BME280;11728;50.624;6.014;2022-07-29T17:12:57;98326.66;;;27.54;38.21
23118;BME280;11728;50.624;6.014;2022-07-29T17:17:58;98328.75;;;27.31;38.46
23118;BME280;11728;50.624;6.014;2022-07-29T17:23:15;98338.84;;;27.20;38.89
23118;BME280;11728;50.624;6.014;2022-07-29T17:28:35;98334.50;;;27.08;38.63
23118;BME280;11728;50.624;6.014;2022-07-29T17:33:41;98344.41;;;26.98;38.85
23118;BME280;11728;50.624;6.014;2022-07-29T17:39:00;98339.78;;;26.89;39.13
23118;BME280;11728;50.624;6.014;2022-07-29T17:44:16;98349.56;;;26.81;39.33
23118;BME280;11728;50.624;6.014;2022-07-29T17:49:23;98350.66;;;26.69;39.70
23118;BME280;11728;50.624;6.014;2022-07-29T17:54:40;98355.97;;;26.59;39.66
23118;BME280;11728;50.624;6.014;2022-07-29T17:59:59;98355.78;;;26.51;39.34
23118;BME280;11728;50.624;6.014;2022-07-29T18:05:03;98363.66;;;26.54;39.53
23118;BME280;11728;50.624;6.014;2022-07-29T18:10:22;98369.28;;;26.62;39.71
23118;BME280;11728;50.624;6.014;2022-07-29T18:15:41;98372.06;;;26.72;39.33
23118;BME280;11728;50.624;6.014;2022-07-29T18:20:43;98364.50;;;26.75;39.33
23118;BME280;11728;50.624;6.014;2022-07-29T18:26:00;98367.50;;;26.52;40.14
23118;BME280;11728;50.624;6.014;2022-07-29T18:31:16;98372.44;;;26.36;40.66
23118;BME280;11728;50.624;6.014;2022-07-29T18:36:22;98378.56;;;26.07;41.02
23118;BME280;11728;50.624;6.014;2022-07-29T18:41:35;98383.56;;;25.80;41.42
23118;BME280;11728;50.624;6.014;2022-07-29T18:46:54;98374.22;;;25.51;42.25
23118;BME280;11728;50.624;6.014;2022-07-29T18:51:57;98375.47;;;25.14;42.74
23118;BME280;11728;50.624;6.014;2022-07-29T18:57:16;98381.03;;;24.89;43.29
23118;BME280;11728;50.624;6.014;2022-07-29T19:02:32;98387.63;;;24.64;44.04
23118;BME280;11728;50.624;6.014;2022-07-29T19:07:42;98392.53;;;24.35;44.81
23118;BME280;11728;50.624;6.014;2022-07-29T19:12:58;98400.84;;;24.09;45.35
23118;BME280;11728;50.624;6.014;2022-07-29T19:18:16;98399.25;;;23.83;46.49
23118;BME280;11728;50.624;6.014;2022-07-29T19:23:23;98407.25;;;23.60;47.29
23118;BME280;11728;50.624;6.014;2022-07-29T19:28:33;98410.41;;;23.41;47.20
23118;BME280;11728;50.624;6.014;2022-07-29T19:33:52;98406.88;;;23.28;47.53
23118;BME280;11728;50.624;6.014;2022-07-29T19:38:56;98415.84;;;23.17;47.83
23118;BME280;11728;50.624;6.014;2022-07-29T19:44:08;98422.00;;;23.06;47.57
23118;BME280;11728;50.624;6.014;2022-07-29T19:49:28;98428.19;;;22.94;48.01
23118;BME280;11728;50.624;6.014;2022-07-29T19:54:32;98428.84;;;22.73;49.05
23118;BME280;11728;50.624;6.014;2022-07-29T19:59:48;98440.09;;;22.53;49.48
23118;BME280;11728;50.624;6.014;2022-07-29T20:05:04;98446.00;;;22.46;49.29
23118;BME280;11728;50.624;6.014;2022-07-29T20:10:06;98453.94;;;22.35;49.46
23118;BME280;11728;50.624;6.014;2022-07-29T20:15:23;98458.59;;;22.19;49.73
23118;BME280;11728;50.624;6.014;2022-07-29T20:20:42;98455.13;;;21.90;50.54
23118;BME280;11728;50.624;6.014;2022-07-29T20:25:43;98455.06;;;21.64;51.13
23118;BME280;11728;50.624;6.014;2022-07-29T20:30:59;98465.53;;;21.41;52.15
23118;BME280;11728;50.624;6.014;2022-07-29T20:36:15;98466.78;;;21.21;52.68
23118;BME280;11728;50.624;6.014;2022-07-29T20:41:21;98470.13;;;21.11;53.57
23118;BME280;11728;50.624;6.014;2022-07-29T20:46:34;98483.88;;;20.91;54.58
23118;BME280;11728;50.624;6.014;2022-07-29T20:51:53;98492.44;;;20.84;54.93
23118;BME280;11728;50.624;6.014;2022-07-29T20:56:57;98500.13;;;20.74;55.56
23118;BME280;11728;50.624;6.014;2022-07-29T21:02:12;98507.69;;;20.68;55.74
23118;BME280;11728;50.624;6.014;2022-07-29T21:07:25;98518.53;;;20.51;56.39
23118;BME280;11728;50.624;6.014;2022-07-29T21:12:28;98522.31;;;20.33;57.51
23118;BME280;11728;50.624;6.014;2022-07-29T21:17:48;98528.19;;;20.24;57.75
23118;BME280;11728;50.624;6.014;2022-07-29T21:23:03;98530.78;;;20.25;57.68
23118;BME280;11728;50.624;6.014;2022-07-29T21:28:10;98529.16;;;20.08;58.12
23118;BME280;11728;50.624;6.014;2022-07-29T21:33:28;98532.31;;;19.83;59.48
23118;BME280;11728;50.624;6.014;2022-07-29T21:38:38;98530.91;;;19.76;59.36
23118;BME280;11728;50.624;6.014;2022-07-29T21:43:45;98536.09;;;19.79;59.16
23118;BME280;11728;50.624;6.014;2022-07-29T21:49:02;98540.94;;;19.73;59.10
23118;BME280;11728;50.624;6.014;2022-07-29T21:54:15;98540.91;;;19.57;59.56
23118;BME280;11728;50.624;6.014;2022-07-29T21:59:18;98533.47;;;19.47;59.91
23118;BME280;11728;50.624;6.014;2022-07-29T22:04:37;98534.28;;;19.32;60.30
23118;BME280;11728;50.624;6.014;2022-07-29T22:09:53;98523.84;;;19.11;61.07
23118;BME280;11728;50.624;6.014;2022-07-29T22:14:56;98517.84;;;18.89;61.91
23118;BME280;11728;50.624;6.014;2022-07-29T22:20:13;98521.72;;;18.66;63.01
23118;BME280;11728;50.624;6.014;2022-07-29T22:25:29;98516.13;;;18.54;62.89
23118;BME280;11728;50.624;6.014;2022-07-29T22:30:29;98509.50;;;18.44;63.46
23118;BME280;11728;50.624;6.014;2022-07-29T22:35:49;98503.19;;;18.28;63.98
23118;BME280;11728;50.624;6.014;2022-07-29T22:41:05;98504.78;;;18.14;64.16
23118;BME280;11728;50.624;6.014;2022-07-29T22:46:09;98513.31;;;18.22;64.31
23118;BME280;11728;50.624;6.014;2022-07-29T22:51:21;98514.13;;;18.24;63.88
23118;BME280;11728;50.624;6.014;2022-07-29T22:56:37;98516.47;;;18.30;63.73
23118;BME280;11728;50.624;6.014;2022-07-29T23:01:44;98519.88;;;18.33;63.76
23118;BME280;11728;50.624;6.014;2022-07-29T23:07:00;98520.19;;;18.44;62.92
23118;BME280;11728;50.624;6.014;2022-07-29T23:12:13;98507.66;;;18.28;63.83
23118;BME280;11728;50.624;6.014;2022-07-29T23:17:17;98508.38;;;18.13;64.33
23118;BME280;11728;50.624;6.014;2022-07-29T23:22:36;98505.09;;;18.08;64.51
23118;BME280;11728;50.624;6.014;2022-07-29T23:27:51;98505.66;;;17.96;64.99
23118;BME280;11728;50.624;6.014;2022-07-29T23:32:56;98509.56;;;17.89;64.74
23118;BME280;11728;50.624;6.014;2022-07-29T23:38:09;98507.06;;;17.86;65.10
23118;BME280;11728;50.624;6.014;2022-07-29T23:43:27;98504.53;;;17.83;65.25
23118;BME280;11728;50.624;6.014;2022-07-29T23:48:31;98501.94;;;17.81;65.45
23118;BME280;11728;50.624;6.014;2022-07-29T23:53:46;98503.81;;;17.79;65.43
23118;BME280;11728;50.624;6.014;2022-07-29T23:59:03;98508.59;;;17.73;65.24
